Time;durP1;ratioP1;P1;durP2;ratioP2;P2;SDS_P1;SDS_P2;PMS_P1;PMS_P2;Temp;Humidity;BMP_temperature;BMP_pressure;BME280_temperature;BME280_humidity;BME280_pressure;Samples;Min_cycle;Max_cycle;Signal;HPM_P1;HPM_P2
2022/09/05 00:00:21;;;;;;;0.82;0.57;;;8.20;99.90;;;;;;5017334;28;20429;-83
2022/09/05 00:02:58;;;;;;;0.80;0.60;;;8.20;99.90;;;;;;5018427;28;20760;-82
2022/09/05 00:05:47;;;;;;;1.23;0.63;;;8.20;99.90;;;;;;5017333;28;20402;-83
2022/09/05 00:08:38;;;;;;;0.80;0.70;;;8.20;99.90;;;;;;5014225;28;20427;-84
2022/09/05 00:11:33;;;;;;;1.77;0.80;;;8.20;99.90;;;;;;5016606;28;20406;-83
2022/09/05 00:14:28;;;;;;;1.45;0.70;;;8.10;99.90;;;;;;5017268;28;20405;-83
2022/09/05 00:17:21;;;;;;;2.00;0.60;;;8.10;99.90;;;;;;5047113;28;20398;-82
2022/09/05 00:20:18;;;;;;;1.10;0.50;;;8.00;99.90;;;;;;5052179;28;20495;-83
2022/09/05 00:23:29;;;;;;;0.80;0.70;;;8.00;99.90;;;;;;5015848;28;20776;-81
2022/09/05 00:26:17;;;;;;;2.00;0.60;;;7.90;99.90;;;;;;5020773;28;20493;-82
2022/09/05 00:28:53;;;;;;;1.10;0.70;;;7.90;99.90;;;;;;5018051;28;20812;-83
2022/09/05 00:31:41;;;;;;;1.20;0.60;;;7.90;99.90;;;;;;5017421;28;20406;-83
2022/09/05 00:34:36;;;;;;;1.85;0.70;;;7.90;99.90;;;;;;5016145;28;20405;-83
2022/09/05 00:37:34;;;;;;;2.22;0.80;;;7.90;99.90;;;;;;5019498;28;20405;-82
2022/09/05 00:40:40;;;;;;;1.88;0.90;;;7.80;99.90;;;;;;5017367;28;20411;-84
2022/09/05 00:43:15;;;;;;;1.00;0.70;;;7.80;99.90;;;;;;5018054;28;20438;-83
2022/09/05 00:45:52;;;;;;;2.40;0.77;;;7.80;99.90;;;;;;5013442;28;20411;-83
2022/09/05 00:48:30;;;;;;;1.83;0.70;;;7.70;99.90;;;;;;5014592;28;20426;-83
2022/09/05 00:51:01;;;;;;;3.15;1.00;;;7.80;99.90;;;;;;5016173;28;20837;-81
2022/09/05 00:53:38;;;;;;;0.70;0.70;;;7.80;99.90;;;;;;5014805;28;20417;-83
2022/09/05 00:56:34;;;;;;;3.05;0.77;;;7.80;99.90;;;;;;5030952;28;20410;-84
2022/09/05 00:59:23;;;;;;;1.60;0.73;;;7.80;99.90;;;;;;5029313;28;20419;-84
2022/09/05 01:01:57;;;;;;;0.83;0.70;;;7.70;99.90;;;;;;5014378;28;20436;-84
2022/09/05 01:04:49;;;;;;;1.02;0.70;;;7.70;99.90;;;;;;5014151;28;20407;-83
2022/09/05 01:07:31;;;;;;;0.90;0.75;;;7.70;99.90;;;;;;5014757;28;20403;-84
2022/09/05 01:10:35;;;;;;;1.63;0.60;;;7.70;99.90;;;;;;5034273;28;20413;-82
2022/09/05 01:13:14;;;;;;;2.80;0.93;;;7.70;99.90;;;;;;5021897;28;20446;-84
2022/09/05 01:16:06;;;;;;;1.35;0.60;;;7.70;99.90;;;;;;5021691;28;20974;-83
2022/09/05 01:18:57;;;;;;;1.45;0.60;;;7.70;99.90;;;;;;5023538;28;20395;-84
2022/09/05 01:21:48;;;;;;;0.90;0.60;;;7.60;99.90;;;;;;5037508;28;20399;-82
2022/09/05 01:27:44;;;;;;;0.90;0.60;;;7.60;99.90;;;;;;4928983;29;20422;-86
2022/09/05 01:30:35;;;;;;;1.50;0.60;;;7.60;99.90;;;;;;4930337;29;20876;-85
2022/09/05 01:33:21;;;;;;;1.75;0.70;;;7.50;99.90;;;;;;4933301;29;20464;-86
2022/09/05 01:36:03;;;;;;;1.40;0.70;;;7.50;99.90;;;;;;4925647;29;20412;-86
2022/09/05 01:38:31;;;;;;;3.33;0.80;;;7.50;99.90;;;;;;4931761;29;20418;-85
2022/09/05 01:41:16;;;;;;;1.80;0.70;;;7.50;99.90;;;;;;4931837;29;20437;-84
2022/09/05 01:44:25;;;;;;;1.00;0.70;;;7.50;99.90;;;;;;4931755;29;20441;-85
2022/09/05 01:47:14;;;;;;;1.25;0.60;;;7.40;99.90;;;;;;4929708;29;20521;-85
2022/09/05 01:50:08;;;;;;;1.05;0.65;;;7.40;99.90;;;;;;4939706;29;20418;-85
2022/09/05 01:52:49;;;;;;;1.23;0.60;;;7.40;99.90;;;;;;4940506;28;20443;-85
2022/09/05 01:55:48;;;;;;;1.55;0.60;;;7.40;99.90;;;;;;4932824;29;20892;-84
2022/09/05 01:58:44;;;;;;;1.27;0.70;;;7.40;99.90;;;;;;4933026;29;20406;-85
2022/09/05 02:01:44;;;;;;;1.87;0.80;;;7.40;99.90;;;;;;4932864;29;20892;-85
2022/09/05 02:04:14;;;;;;;2.00;0.80;;;7.40;99.90;;;;;;4927137;29;20434;-85
2022/09/05 02:06:45;;;;;;;1.20;0.70;;;7.40;99.90;;;;;;4946168;29;20400;-85
2022/09/05 02:09:22;;;;;;;2.43;0.77;;;7.40;99.90;;;;;;4928789;29;20505;-85
2022/09/05 02:11:53;;;;;;;2.58;1.05;;;7.40;99.90;;;;;;4931231;29;20443;-86
2022/09/05 02:14:37;;;;;;;0.80;0.70;;;7.40;99.90;;;;;;4932980;29;20413;-85
2022/09/05 02:17:40;;;;;;;0.73;0.70;;;7.40;99.90;;;;;;4923499;29;20438;-85
2022/09/05 02:20:25;;;;;;;1.63;0.73;;;7.40;99.90;;;;;;4931367;29;20413;-85
2022/09/05 02:23:09;;;;;;;0.88;0.70;;;7.40;99.90;;;;;;4946606;28;20407;-86
2022/09/05 02:26:06;;;;;;;0.77;0.60;;;7.40;99.90;;;;;;4924997;29;20448;-85
2022/09/05 02:29:10;;;;;;;1.25;0.80;;;7.40;99.90;;;;;;4935691;29;21058;-85
2022/09/05 02:32:19;;;;;;;1.48;0.80;;;7.40;99.90;;;;;;4928702;29;20421;-86
2022/09/05 02:35:14;;;;;;;1.70;0.80;;;7.40;99.90;;;;;;4930558;29;20413;-86
2022/09/05 02:37:50;;;;;;;1.70;0.80;;;7.40;99.90;;;;;;4931255;29;20418;-85
2022/09/05 02:40:57;;;;;;;1.20;0.80;;;7.40;99.90;;;;;;4949072;29;20415;-86
2022/09/05 02:44:14;;;;;;;1.42;0.85;;;7.30;99.90;;;;;;4934814;29;20971;-86
2022/09/05 02:47:21;;;;;;;0.93;0.73;;;7.30;99.90;;;;;;4945189;29;20410;-86
2022/09/05 02:50:05;;;;;;;1.30;0.70;;;7.30;99.90;;;;;;4927852;29;20410;-83
2022/09/05 02:52:53;;;;;;;0.93;0.70;;;7.30;99.90;;;;;;4945993;29;20489;-85
2022/09/05 02:56:02;;;;;;;0.73;0.70;;;7.30;99.90;;;;;;4931706;29;20923;-85
2022/09/05 02:59:07;;;;;;;1.33;0.82;;;7.30;99.90;;;;;;4924862;29;20500;-86
2022/09/05 03:01:58;;;;;;;1.00;0.80;;;7.30;99.90;;;;;;4932687;29;20480;-84
2022/09/05 03:04:34;;;;;;;1.80;0.80;;;7.30;99.90;;;;;;4929571;29;20413;-85
2022/09/05 03:07:07;;;;;;;2.30;0.90;;;7.30;99.90;;;;;;4950348;28;20414;-86
2022/09/05 03:09:56;;;;;;;2.80;0.90;;;7.30;99.90;;;;;;4932994;29;20510;-85
2022/09/05 03:12:39;;;;;;;1.33;0.70;;;7.30;99.90;;;;;;4948377;28;20758;-84
2022/09/05 03:15:47;;;;;;;1.00;0.80;;;7.30;99.90;;;;;;4931210;29;20418;-83
2022/09/05 03:18:33;;;;;;;1.77;0.70;;;7.30;99.90;;;;;;4932630;29;20406;-85
2022/09/05 03:21:19;;;;;;;1.15;0.73;;;7.30;99.90;;;;;;4926737;29;20410;-88
2022/09/05 03:23:58;;;;;;;2.55;0.80;;;7.30;99.90;;;;;;4942633;28;20945;-85
2022/09/05 03:26:57;;;;;;;1.23;0.75;;;7.30;99.90;;;;;;4930610;29;20488;-87
2022/09/05 03:29:43;;;;;;;0.90;0.68;;;7.30;99.90;;;;;;4930217;29;20405;-85
2022/09/05 03:32:48;;;;;;;1.30;0.75;;;7.20;99.90;;;;;;4927115;29;20417;-85
2022/09/05 03:35:38;;;;;;;1.23;0.70;;;7.20;99.90;;;;;;4929948;29;20501;-85
2022/09/05 03:38:12;;;;;;;1.73;0.80;;;7.20;99.90;;;;;;4925855;29;20867;-85
2022/09/05 03:41:06;;;;;;;1.20;0.80;;;7.20;99.90;;;;;;4943769;29;20493;-87
2022/09/05 03:43:42;;;;;;;1.52;0.77;;;7.30;99.90;;;;;;4927657;29;20406;-86
2022/09/05 03:46:32;;;;;;;1.60;0.80;;;7.20;99.90;;;;;;4949421;28;20446;-86
2022/09/05 03:49:21;;;;;;;0.93;0.80;;;7.20;99.90;;;;;;4927784;29;20819;-87
2022/09/05 03:52:08;;;;;;;1.50;0.90;;;7.20;99.90;;;;;;4930992;29;20418;-86
2022/09/05 03:55:35;;;;;;;1.10;0.80;;;7.20;99.90;;;;;;4930185;29;20418;-86
2022/09/05 03:59:00;;;;;;;1.00;0.70;;;7.10;99.90;;;;;;4932920;29;20408;-86
2022/09/05 04:01:40;;;;;;;1.27;0.73;;;7.00;99.90;;;;;;4931662;29;21331;-86
2022/09/05 04:04:35;;;;;;;1.60;0.88;;;7.00;99.90;;;;;;4935102;29;20413;-87
2022/09/05 04:07:52;;;;;;;1.30;0.70;;;6.90;99.90;;;;;;4924212;29;20410;-87
2022/09/05 04:10:54;;;;;;;1.00;0.70;;;6.90;99.90;;;;;;4947885;28;20407;-87
2022/09/05 04:13:28;;;;;;;2.08;0.82;;;6.90;99.90;;;;;;4929660;29;20413;-85
2022/09/05 04:15:59;;;;;;;1.27;1.00;;;6.90;99.90;;;;;;4925564;29;20483;-87
2022/09/05 04:18:40;;;;;;;1.70;0.80;;;6.90;99.90;;;;;;4931367;29;20410;-85
2022/09/05 04:21:20;;;;;;;2.03;0.90;;;6.90;99.90;;;;;;4922731;29;20414;-88
2022/09/05 04:24:17;;;;;;;1.23;0.85;;;6.80;99.90;;;;;;4948166;28;20469;-87
2022/09/05 04:27:10;;;;;;;1.02;0.80;;;6.90;99.90;;;;;;4948371;28;20754;-86
2022/09/05 04:30:13;;;;;;;2.67;1.05;;;6.90;99.90;;;;;;4928719;29;20469;-87
2022/09/05 04:33:16;;;;;;;5.60;1.20;;;7.00;99.90;;;;;;4944434;28;20457;-87
2022/09/05 04:36:05;;;;;;;1.38;0.80;;;7.00;99.90;;;;;;4946990;28;20950;-87
2022/09/05 04:38:45;;;;;;;1.27;0.80;;;7.00;99.90;;;;;;4928097;29;20475;-88
2022/09/05 04:41:22;;;;;;;2.08;0.98;;;7.00;99.90;;;;;;4932737;29;20443;-87
2022/09/05 04:44:15;;;;;;;4.60;1.88;;;7.00;99.90;;;;;;4946417;29;20414;-87
2022/09/05 04:46:51;;;;;;;3.03;1.23;;;7.00;99.90;;;;;;4944157;28;20997;-87
2022/09/05 04:49:33;;;;;;;1.85;1.00;;;7.00;99.90;;;;;;4931120;29;20908;-87
2022/09/05 04:52:24;;;;;;;2.35;1.00;;;7.00;99.90;;;;;;4933347;29;20512;-86
2022/09/05 04:55:15;;;;;;;2.80;1.52;;;7.10;99.90;;;;;;4929593;29;20530;-87
2022/09/05 04:58:05;;;;;;;2.95;1.27;;;7.00;99.90;;;;;;4915136;29;20411;-87
2022/09/05 05:01:00;;;;;;;2.45;0.93;;;7.00;99.90;;;;;;4931090;29;20420;-87
2022/09/05 05:03:48;;;;;;;1.60;1.00;;;7.00;99.90;;;;;;4929192;29;20413;-87
2022/09/05 05:06:50;;;;;;;2.30;0.90;;;7.10;99.90;;;;;;4926512;29;20818;-87
2022/09/05 05:09:26;;;;;;;1.90;1.00;;;7.00;99.90;;;;;;4947370;28;20918;-86
2022/09/05 05:12:09;;;;;;;3.43;1.00;;;7.00;99.90;;;;;;4927754;29;20750;-86
2022/09/05 05:15:05;;;;;;;1.55;1.00;;;7.00;99.90;;;;;;4925392;29;20764;-86
2022/09/05 05:17:56;;;;;;;3.50;1.85;;;7.10;99.90;;;;;;4932217;29;20405;-87
2022/09/05 05:21:04;;;;;;;4.23;1.50;;;7.10;99.90;;;;;;4931292;29;20552;-87
2022/09/05 05:23:37;;;;;;;2.80;1.50;;;7.10;99.90;;;;;;4929295;29;20416;-87
2022/09/05 05:26:10;;;;;;;3.00;0.90;;;7.10;99.90;;;;;;4932443;29;20467;-86
2022/09/05 05:28:44;;;;;;;1.20;0.90;;;7.10;99.90;;;;;;4929209;28;20424;-87
2022/09/05 05:31:20;;;;;;;3.63;1.40;;;7.20;99.90;;;;;;4917265;29;20940;-87
2022/09/05 05:33:50;;;;;;;2.90;1.13;;;7.20;99.90;;;;;;4932292;28;20414;-86
2022/09/05 05:36:26;;;;;;;3.15;1.10;;;7.20;99.90;;;;;;4927567;29;20926;-86
2022/09/05 05:38:58;;;;;;;1.85;1.10;;;7.30;99.90;;;;;;4922723;29;20417;-85
2022/09/05 05:41:35;;;;;;;1.50;0.90;;;7.30;99.90;;;;;;4923245;29;20414;-87
2022/09/05 05:44:36;;;;;;;1.77;1.00;;;7.40;99.90;;;;;;4917402;29;20499;-87
2022/09/05 05:47:15;;;;;;;1.67;0.85;;;7.40;99.90;;;;;;4922954;29;20557;-86
2022/09/05 05:50:36;;;;;;;1.73;0.90;;;7.40;99.90;;;;;;4923925;29;20434;-86
2022/09/05 05:53:25;;;;;;;1.60;0.88;;;7.50;99.90;;;;;;4923566;29;20788;-86
2022/09/05 05:56:24;;;;;;;1.52;0.73;;;7.50;99.90;;;;;;4922401;29;20406;-85
2022/09/05 05:59:10;;;;;;;1.90;0.70;;;7.60;99.90;;;;;;4932431;29;20413;-86
2022/09/05 06:02:03;;;;;;;1.25;0.70;;;7.60;99.90;;;;;;4916212;29;20398;-86
2022/09/05 06:04:55;;;;;;;2.08;0.90;;;7.60;99.90;;;;;;4930739;29;20396;-85
2022/09/05 06:07:54;;;;;;;1.45;0.90;;;7.70;99.90;;;;;;4936065;29;20406;-86
2022/09/05 06:11:00;;;;;;;2.47;0.80;;;7.70;99.90;;;;;;4937627;29;20469;-86
2022/09/05 06:13:54;;;;;;;0.90;0.68;;;7.80;99.90;;;;;;4926325;29;20422;-85
2022/09/05 06:16:53;;;;;;;1.83;0.90;;;7.80;99.90;;;;;;4935049;29;20433;-86
2022/09/05 06:19:47;;;;;;;1.38;0.60;;;7.90;99.90;;;;;;4926018;29;20439;-85
2022/09/05 06:23:03;;;;;;;1.57;0.80;;;8.00;99.90;;;;;;4930959;29;20412;-86
2022/09/05 06:26:11;;;;;;;1.93;0.80;;;8.00;99.90;;;;;;4926441;29;20431;-86
2022/09/05 06:29:04;;;;;;;1.58;0.80;;;8.00;99.90;;;;;;4923853;29;20437;-86
2022/09/05 06:31:59;;;;;;;2.00;0.80;;;8.00;99.90;;;;;;4929491;29;20441;-86
2022/09/05 06:34:33;;;;;;;2.00;0.70;;;8.10;99.90;;;;;;4923807;29;20482;-85
2022/09/05 06:37:09;;;;;;;1.27;0.70;;;8.10;99.90;;;;;;4917877;29;20412;-85
2022/09/05 06:39:59;;;;;;;2.00;0.80;;;8.10;99.90;;;;;;4922249;29;20419;-86
2022/09/05 06:42:59;;;;;;;1.47;0.90;;;8.20;99.90;;;;;;4929586;29;20992;-85
2022/09/05 06:45:43;;;;;;;2.63;0.90;;;8.20;99.90;;;;;;4950907;28;20777;-85
2022/09/05 06:48:25;;;;;;;2.78;0.70;;;8.30;99.90;;;;;;4928507;29;20964;-85
2022/09/05 06:51:50;;;;;;;1.52;0.70;;;8.40;99.90;;;;;;4932068;29;20414;-86
2022/09/05 06:55:09;;;;;;;1.52;0.70;;;8.40;99.90;;;;;;4917978;29;20501;-85
2022/09/05 06:58:00;;;;;;;1.10;0.60;;;8.50;99.90;;;;;;4925277;29;20404;-85
2022/09/05 07:00:37;;;;;;;1.63;0.60;;;8.50;99.90;;;;;;4927054;29;20463;-86
2022/09/05 07:03:31;;;;;;;1.40;0.70;;;8.50;99.90;;;;;;4924801;29;20402;-85
2022/09/05 07:06:25;;;;;;;1.00;0.73;;;8.70;99.90;;;;;;4923811;29;20405;-85
2022/09/05 07:09:33;;;;;;;1.20;0.68;;;8.80;99.90;;;;;;4926176;29;20421;-84
2022/09/05 07:12:25;;;;;;;0.70;0.60;;;8.90;99.90;;;;;;4925446;29;20403;-85
2022/09/05 07:15:16;;;;;;;1.20;0.77;;;8.90;99.90;;;;;;4931017;29;20407;-85
2022/09/05 07:18:08;;;;;;;1.27;0.60;;;8.90;99.90;;;;;;4934333;29;20399;-86
2022/09/05 07:20:49;;;;;;;0.70;0.60;;;9.00;99.90;;;;;;4927627;29;20468;-85
2022/09/05 07:23:52;;;;;;;2.80;0.70;;;9.00;99.90;;;;;;4933905;29;20429;-85
2022/09/05 07:26:41;;;;;;;1.10;0.68;;;9.00;99.90;;;;;;4932951;29;20512;-86
2022/09/05 07:29:28;;;;;;;1.60;0.70;;;9.10;99.90;;;;;;4932638;29;20845;-86
2022/09/05 07:31:58;;;;;;;1.48;0.70;;;9.10;99.90;;;;;;4934579;29;20506;-85
2022/09/05 07:34:34;;;;;;;0.77;0.60;;;9.10;99.90;;;;;;4924034;29;20504;-85
2022/09/05 07:37:07;;;;;;;1.55;0.60;;;9.20;99.90;;;;;;4927224;29;20477;-85
2022/09/05 07:40:09;;;;;;;0.95;0.68;;;9.20;99.90;;;;;;4941428;28;20418;-85
2022/09/05 07:43:10;;;;;;;0.70;0.63;;;9.20;99.90;;;;;;4934140;29;20417;-86
2022/09/05 07:46:10;;;;;;;0.82;0.60;;;9.30;99.90;;;;;;4921431;29;20416;-86
2022/09/05 07:48:52;;;;;;;1.30;0.60;;;9.40;99.90;;;;;;4935483;29;20754;-85
2022/09/05 07:51:29;;;;;;;1.60;0.70;;;9.40;99.90;;;;;;4935638;29;20493;-86
2022/09/05 07:54:30;;;;;;;1.33;0.70;;;9.40;99.90;;;;;;4929781;29;20418;-85
2022/09/05 07:57:30;;;;;;;1.33;0.70;;;9.50;99.90;;;;;;4934855;29;20738;-86
2022/09/05 08:00:19;;;;;;;0.60;0.60;;;9.40;99.90;;;;;;4933479;29;20398;-87
2022/09/05 08:03:08;;;;;;;0.70;0.57;;;9.40;99.90;;;;;;4928323;29;20418;-85
2022/09/05 08:05:52;;;;;;;1.83;0.57;;;9.40;99.90;;;;;;4924070;29;20806;-86
2022/09/05 08:08:27;;;;;;;0.70;0.60;;;9.40;99.90;;;;;;4922708;29;20489;-85
2022/09/05 08:11:06;;;;;;;1.10;0.73;;;9.40;99.90;;;;;;4934812;29;20484;-86
2022/09/05 08:14:29;;;;;;;1.27;0.60;;;9.40;99.90;;;;;;4934868;29;20428;-86
2022/09/05 08:17:19;;;;;;;1.73;0.60;;;9.40;99.90;;;;;;4922293;29;20417;-86
2022/09/05 08:20:06;;;;;;;1.10;0.60;;;9.40;99.90;;;;;;4928596;29;20509;-85
2022/09/05 08:22:56;;;;;;;2.30;0.70;;;9.50;99.90;;;;;;4922606;29;20473;-85
2022/09/05 08:25:33;;;;;;;1.98;0.70;;;9.60;99.90;;;;;;4927882;29;20455;-84
2022/09/05 08:28:32;;;;;;;0.60;0.60;;;9.60;99.90;;;;;;4923083;29;20422;-84
2022/09/05 08:31:19;;;;;;;0.70;0.60;;;9.60;99.90;;;;;;4947838;29;20504;-84
2022/09/05 08:33:55;;;;;;;0.60;0.60;;;9.50;99.90;;;;;;4934011;29;20516;-86
2022/09/05 08:36:36;;;;;;;0.85;0.70;;;9.50;99.90;;;;;;4927555;29;20412;-86
2022/09/05 08:39:09;;;;;;;0.80;0.50;;;9.50;99.90;;;;;;4930384;29;20412;-86
2022/09/05 08:41:42;;;;;;;1.15;0.60;;;9.50;99.90;;;;;;4932581;29;20406;-86
2022/09/05 08:44:40;;;;;;;1.00;0.77;;;9.40;99.90;;;;;;4936833;28;20588;-86
2022/09/05 08:47:51;;;;;;;2.63;0.70;;;9.40;99.90;;;;;;4949496;29;20405;-86
2022/09/05 08:50:57;;;;;;;1.58;0.70;;;9.50;99.90;;;;;;4933202;29;20410;-85
2022/09/05 08:53:54;;;;;;;0.80;0.60;;;9.50;99.90;;;;;;4929088;29;20417;-84
2022/09/05 08:56:38;;;;;;;3.20;0.67;;;9.40;99.90;;;;;;4929441;29;20445;-85
2022/09/05 08:59:27;;;;;;;0.60;0.50;;;9.40;99.90;;;;;;4924683;29;20414;-85
2022/09/05 09:02:36;;;;;;;0.80;0.60;;;9.40;99.90;;;;;;4916452;29;20404;-86
2022/09/05 09:05:32;;;;;;;0.90;0.60;;;9.50;99.90;;;;;;4910683;29;20409;-86
2022/09/05 09:09:02;;;;;;;0.60;0.50;;;9.60;99.90;;;;;;4924340;29;20413;-86
2022/09/05 09:12:04;;;;;;;2.10;0.60;;;9.60;99.90;;;;;;4926868;29;20446;-86
2022/09/05 09:14:59;;;;;;;1.40;0.55;;;9.70;99.90;;;;;;4926159;29;20589;-85
2022/09/05 09:17:42;;;;;;;1.05;0.60;;;9.70;99.90;;;;;;4931853;29;20504;-86
2022/09/05 09:20:27;;;;;;;0.57;0.50;;;9.80;99.90;;;;;;4927079;29;20501;-85
2022/09/05 09:22:58;;;;;;;0.50;0.40;;;9.90;99.90;;;;;;4927256;29;20447;-86
2022/09/05 09:25:57;;;;;;;0.68;0.50;;;9.90;99.90;;;;;;4921611;29;20439;-86
2022/09/05 09:28:41;;;;;;;1.17;0.60;;;9.90;99.90;;;;;;4923868;29;20507;-86
2022/09/05 09:31:41;;;;;;;1.27;0.77;;;10.00;99.90;;;;;;4916780;29;20406;-87
2022/09/05 09:34:30;;;;;;;0.90;0.57;;;10.10;99.90;;;;;;4925524;29;20417;-86
2022/09/05 09:37:10;;;;;;;1.00;0.50;;;10.10;99.90;;;;;;4935688;29;20916;-86
2022/09/05 09:39:52;;;;;;;1.67;0.50;;;10.10;99.90;;;;;;4935748;29;20428;-86
2022/09/05 09:42:50;;;;;;;0.70;0.50;;;10.10;99.90;;;;;;4936527;29;20481;-87
2022/09/05 09:45:27;;;;;;;2.60;0.60;;;10.20;99.90;;;;;;4936580;29;20405;-85
2022/09/05 09:47:59;;;;;;;0.60;0.50;;;10.30;99.90;;;;;;4936971;29;20401;-86
2022/09/05 09:50:49;;;;;;;0.77;0.50;;;10.40;99.90;;;;;;4936926;29;20424;-87
2022/09/05 09:53:58;;;;;;;1.60;0.60;;;10.50;99.90;;;;;;4936777;29;20470;-86
2022/09/05 09:56:44;;;;;;;0.98;0.52;;;10.50;99.90;;;;;;4936802;29;20617;-85
2022/09/05 09:59:33;;;;;;;1.25;0.57;;;10.50;99.90;;;;;;4936711;29;20406;-86
2022/09/05 10:02:39;;;;;;;0.87;0.50;;;10.60;99.90;;;;;;4937837;29;20873;-86
2022/09/05 10:05:46;;;;;;;0.50;0.50;;;10.50;99.90;;;;;;4936885;29;20402;-86
2022/09/05 10:08:49;;;;;;;0.70;0.60;;;10.50;99.90;;;;;;4937822;29;20402;-87
2022/09/05 10:12:05;;;;;;;1.73;0.50;;;10.50;99.90;;;;;;4937653;29;20398;-86
2022/09/05 10:14:52;;;;;;;0.63;0.60;;;10.50;99.90;;;;;;4929194;29;20785;-86
2022/09/05 10:17:46;;;;;;;2.67;0.50;;;10.50;99.90;;;;;;4936572;29;20401;-86
2022/09/05 10:20:38;;;;;;;0.80;0.60;;;10.70;99.90;;;;;;4936371;29;20908;-87
2022/09/05 10:23:37;;;;;;;0.98;0.60;;;10.80;99.90;;;;;;4936399;29;20402;-86
2022/09/05 10:26:49;;;;;;;1.70;0.50;;;10.70;99.90;;;;;;4936326;29;20473;-87
2022/09/05 10:29:35;;;;;;;0.70;0.50;;;10.70;99.90;;;;;;4933117;29;20417;-86
2022/09/05 10:32:30;;;;;;;0.85;0.68;;;10.60;99.90;;;;;;4937311;29;20445;-86
2022/09/05 10:35:32;;;;;;;1.10;0.50;;;10.60;99.90;;;;;;4936258;29;20413;-86
2022/09/05 10:38:10;;;;;;;0.75;0.50;;;10.60;99.90;;;;;;4937222;29;20504;-85
2022/09/05 10:40:43;;;;;;;1.75;0.50;;;10.80;99.90;;;;;;4935890;29;20497;-86
2022/09/05 10:43:37;;;;;;;0.83;0.60;;;11.00;99.90;;;;;;4935980;29;20409;-86
2022/09/05 10:46:54;;;;;;;0.70;0.52;;;11.00;99.90;;;;;;4935956;29;20398;-86
2022/09/05 10:49:34;;;;;;;1.33;0.50;;;11.00;99.90;;;;;;4922155;29;20488;-86
2022/09/05 10:52:13;;;;;;;0.82;0.60;;;10.80;99.90;;;;;;4935936;29;20405;-86
2022/09/05 10:54:59;;;;;;;1.10;0.70;;;10.90;99.90;;;;;;4935823;29;21076;-86
2022/09/05 10:57:56;;;;;;;1.63;0.57;;;11.20;99.90;;;;;;4935508;29;20982;-87
2022/09/05 11:00:41;;;;;;;1.00;0.40;;;11.30;99.90;;;;;;4936802;29;20421;-87
2022/09/05 11:03:40;;;;;;;0.50;0.50;;;11.30;99.90;;;;;;4935795;29;20402;-86
2022/09/05 11:06:14;;;;;;;0.40;0.40;;;11.20;99.90;;;;;;4935628;29;20398;-86
2022/09/05 11:09:22;;;;;;;0.43;0.43;;;11.10;99.90;;;;;;4935665;29;20959;-86
2022/09/05 11:12:08;;;;;;;0.88;0.57;;;11.10;99.90;;;;;;4935461;29;20398;-86
2022/09/05 11:14:49;;;;;;;1.05;0.50;;;11.40;99.90;;;;;;4935203;29;20452;-86
2022/09/05 11:18:03;;;;;;;0.68;0.50;;;11.70;99.90;;;;;;4919652;29;20426;-87
2022/09/05 11:20:49;;;;;;;0.83;0.60;;;11.60;99.90;;;;;;4924900;29;20402;-86
2022/09/05 11:23:43;;;;;;;0.83;0.50;;;11.60;99.90;;;;;;4935224;29;20437;-87
2022/09/05 11:26:31;;;;;;;0.82;0.50;;;11.50;99.90;;;;;;4934807;29;20855;-85
2022/09/05 11:29:34;;;;;;;1.08;0.50;;;11.30;99.90;;;;;;4935107;29;20896;-86
2022/09/05 11:32:50;;;;;;;0.60;0.50;;;11.60;99.90;;;;;;4928870;29;20984;-86
2022/09/05 11:35:44;;;;;;;1.45;0.60;;;11.90;99.90;;;;;;4926724;29;20765;-86
2022/09/05 11:38:44;;;;;;;1.20;0.50;;;12.30;99.90;;;;;;4935027;29;20768;-86
2022/09/05 11:41:50;;;;;;;1.00;0.57;;;12.60;99.90;;;;;;4935083;29;20402;-87
2022/09/05 11:44:23;;;;;;;0.88;0.50;;;12.50;99.90;;;;;;4935937;29;20405;-86
2022/09/05 11:47:19;;;;;;;1.20;0.50;;;12.20;99.90;;;;;;4934960;29;20428;-86
2022/09/05 11:50:26;;;;;;;1.60;0.50;;;12.10;99.90;;;;;;4933259;29;20432;-86
2022/09/05 11:53:31;;;;;;;0.43;0.43;;;12.20;99.90;;;;;;4935032;29;20404;-86
2022/09/05 11:56:40;;;;;;;0.95;0.50;;;12.50;99.90;;;;;;4934595;29;20583;-86
2022/09/05 11:59:27;;;;;;;0.80;0.45;;;12.90;99.90;;;;;;4934203;29;20434;-87
2022/09/05 12:02:31;;;;;;;1.38;0.57;;;13.10;99.90;;;;;;4934243;29;20406;-86
2022/09/05 12:05:54;;;;;;;0.40;0.40;;;13.10;99.90;;;;;;4934418;29;20406;-86
2022/09/05 12:08:51;;;;;;;0.80;0.50;;;12.80;99.90;;;;;;4941815;29;20923;-85
2022/09/05 12:11:47;;;;;;;1.50;0.50;;;12.60;99.90;;;;;;4950044;29;20402;-86
2022/09/05 12:14:33;;;;;;;1.75;0.50;;;12.40;99.90;;;;;;4950023;28;20457;-86
2022/09/05 12:17:24;;;;;;;0.60;0.40;;;12.20;99.90;;;;;;4934606;29;20476;-86
2022/09/05 12:20:13;;;;;;;1.08;0.60;;;12.10;99.90;;;;;;4931878;29;20410;-85
2022/09/05 12:23:30;;;;;;;1.80;0.57;;;12.10;99.90;;;;;;4929588;29;20432;-85
2022/09/05 12:26:42;;;;;;;0.77;0.60;;;12.00;99.90;;;;;;4952396;28;20416;-86
2022/09/05 12:29:35;;;;;;;0.90;0.57;;;12.00;99.90;;;;;;4953178;29;20392;-85
2022/09/05 12:32:24;;;;;;;1.40;0.50;;;12.30;99.90;;;;;;4922465;29;20910;-85
2022/09/05 12:35:33;;;;;;;1.10;0.60;;;12.90;99.90;;;;;;4953942;29;20891;-85
2022/09/05 12:38:46;;;;;;;1.00;0.60;;;13.30;99.90;;;;;;4935440;28;20492;-87
2022/09/05 12:42:01;;;;;;;0.70;0.60;;;13.40;99.90;;;;;;4933440;29;20405;-85
2022/09/05 12:44:57;;;;;;;0.50;0.50;;;13.00;99.90;;;;;;4935015;29;20398;-86
2022/09/05 12:47:28;;;;;;;2.25;0.50;;;12.80;99.90;;;;;;4935004;29;20409;-86
2022/09/05 12:50:05;;;;;;;0.80;0.50;;;12.60;99.90;;;;;;4941238;29;20428;-86
2022/09/05 12:52:50;;;;;;;0.60;0.50;;;12.50;99.90;;;;;;4952599;29;20462;-85
2022/09/05 12:55:30;;;;;;;0.50;0.40;;;12.40;99.90;;;;;;4953534;29;20922;-87
2022/09/05 12:58:09;;;;;;;1.25;0.50;;;12.40;99.90;;;;;;4952080;29;20401;-86
2022/09/05 13:01:14;;;;;;;0.95;0.60;;;12.30;99.90;;;;;;4952414;29;20404;-87
2022/09/05 13:04:05;;;;;;;0.68;0.50;;;12.60;99.90;;;;;;4952340;29;20985;-86
2022/09/05 13:06:52;;;;;;;1.20;0.60;;;12.90;99.90;;;;;;4952371;29;20402;-86
2022/09/05 13:09:32;;;;;;;2.83;0.60;;;12.70;99.90;;;;;;4926934;28;20756;-87
2022/09/05 13:12:28;;;;;;;0.57;0.50;;;12.60;99.90;;;;;;4933293;29;20406;-86
2022/09/05 13:15:35;;;;;;;1.30;0.60;;;12.40;99.90;;;;;;4934339;29;20414;-86
2022/09/05 13:18:15;;;;;;;1.00;0.60;;;12.30;99.90;;;;;;4934697;29;20936;-87
2022/09/05 13:20:57;;;;;;;1.70;0.60;;;12.20;99.90;;;;;;4933293;29;20587;-87
2022/09/05 13:23:36;;;;;;;2.30;0.60;;;12.20;99.90;;;;;;4934544;29;20482;-87
2022/09/05 13:26:32;;;;;;;3.53;0.70;;;12.10;99.90;;;;;;4939889;29;20424;-86
2022/09/05 13:29:27;;;;;;;0.95;0.50;;;12.10;99.90;;;;;;4927803;29;20490;-85
2022/09/05 13:32:08;;;;;;;2.90;0.60;;;12.00;99.90;;;;;;4898993;29;20948;-85
2022/09/05 13:35:16;;;;;;;2.10;0.60;;;12.10;99.90;;;;;;4954356;28;20820;-85
2022/09/05 13:38:26;;;;;;;1.25;0.50;;;12.10;99.90;;;;;;4944944;28;20408;-85
2022/09/05 13:41:21;;;;;;;0.95;0.60;;;12.00;99.90;;;;;;4951961;29;20412;-85
2022/09/05 13:43:58;;;;;;;2.20;0.60;;;11.90;99.90;;;;;;4960863;28;20401;-86
2022/09/05 13:47:06;;;;;;;2.80;0.80;;;11.90;99.90;;;;;;4955377;28;20398;-86
2022/09/05 13:50:21;;;;;;;1.70;0.60;;;11.80;99.90;;;;;;4943274;29;20411;-85
2022/09/05 13:53:13;;;;;;;1.10;0.57;;;11.80;99.90;;;;;;4936666;29;20407;-87
2022/09/05 13:55:52;;;;;;;0.50;0.50;;;11.80;99.90;;;;;;4948647;28;20407;-86
2022/09/05 13:58:41;;;;;;;1.17;0.52;;;11.80;99.90;;;;;;4948742;28;20398;-86
2022/09/05 14:01:51;;;;;;;0.90;0.52;;;11.80;99.90;;;;;;4948606;28;20399;-86
2022/09/05 14:04:59;;;;;;;1.42;0.70;;;11.80;99.90;;;;;;4946133;29;20396;-86
2022/09/05 14:08:01;;;;;;;1.05;0.55;;;11.80;99.90;;;;;;4932957;29;20404;-86
2022/09/05 14:11:16;;;;;;;2.00;0.60;;;11.80;99.90;;;;;;4948606;29;20489;-85
2022/09/05 14:14:09;;;;;;;1.10;0.50;;;11.80;99.90;;;;;;4916675;29;20486;-86
2022/09/05 14:16:48;;;;;;;1.13;0.60;;;11.80;99.90;;;;;;4932794;29;20394;-87
2022/09/05 14:22:12;;;;;;;0.95;0.60;;;11.70;99.90;;;;;;4934225;29;20744;-87
2022/09/05 14:24:49;;;;;;;3.00;0.57;;;11.90;99.90;;;;;;4943391;29;20457;-85
2022/09/05 14:27:27;;;;;;;1.85;0.60;;;12.10;99.90;;;;;;4935967;29;20425;-86
2022/09/05 14:30:02;;;;;;;1.73;0.60;;;12.00;99.90;;;;;;4936059;29;20465;-85
2022/09/05 14:33:29;;;;;;;3.10;0.60;;;11.90;99.90;;;;;;4936069;29;20402;-86
2022/09/05 14:36:32;;;;;;;1.63;0.70;;;11.90;99.90;;;;;;4936205;29;20489;-87
2022/09/05 14:39:48;;;;;;;0.77;0.60;;;11.80;99.90;;;;;;4936969;29;20401;-86
2022/09/05 14:42:31;;;;;;;1.00;0.60;;;11.80;99.90;;;;;;4935802;29;20441;-86
2022/09/05 14:45:25;;;;;;;22.13;1.87;;;11.70;99.90;;;;;;4935738;29;20445;-86
2022/09/05 14:48:27;;;;;;;4.20;0.60;;;11.70;99.90;;;;;;4917112;29;20508;-85
2022/09/05 14:51:18;;;;;;;1.85;0.50;;;11.80;99.90;;;;;;4924559;29;20408;-86
2022/09/05 14:54:03;;;;;;;0.93;0.60;;;11.80;99.90;;;;;;4922606;29;20787;-86
2022/09/05 14:56:50;;;;;;;2.10;0.65;;;11.80;99.90;;;;;;4948843;28;20465;-87
2022/09/05 14:59:41;;;;;;;1.33;0.60;;;11.70;99.90;;;;;;4931598;29;20409;-87
2022/09/05 15:02:46;;;;;;;0.52;0.40;;;11.70;99.90;;;;;;4929530;29;20420;-86
2022/09/05 15:05:38;;;;;;;3.10;0.60;;;11.70;99.90;;;;;;4927162;29;20512;-87